Khoy, Iran
Current Conditions -  °F | °C
As of 1:54 PM on Wednesday 22 Oct 2014 (Local Time) from OITU Reporting Station
Few Clouds Few Clouds  
Wind Chill: 61°   Ceiling: Unl
Heat Index: 61°   Visibility: 6mi
Dew Point: 43°   Wind: 5mph
Humidity: 52%   Direction: 140°SE
Pressure: 30.09"   Gusts: NA
Location:  38.53°N, 44.97°E
Report Text: OITU 221054Z 14004KT 9999 FEW035 16/06 Q1019
Loading
Personal Weather Stations






























Interactive Weather Map New forecast layout! Learn more

10-Day Weather Forecast

Advertisements
Track Severe Weather on mobile